Time;durP1;ratioP1;P1;durP2;ratioP2;P2;SDS_P1;SDS_P2;PMS_P1;PMS_P2;Temp;Humidity;BMP_temperature;BMP_pressure;BME280_temperature;BME280_humidity;BME280_pressure;Samples;Min_cycle;Max_cycle;Signal;HPM_P1;HPM_P2
2022/08/21 00:01:48;;;;;;;;;;;17.60;99.90;;;;;;4214629;28;20307;-58
2022/08/21 00:03:50;;;;;;;;;;;17.60;99.90;;;;;;4196586;28;19929;-56
2022/08/21 00:05:53;;;;;;;;;;;17.60;99.90;;;;;;4214778;28;19935;-57
2022/08/21 00:07:55;;;;;;;;;;;17.60;99.90;;;;;;4214578;28;19931;-55
2022/08/21 00:09:58;;;;;;;;;;;17.50;99.90;;;;;;4215003;28;20011;-57
2022/08/21 00:11:59;;;;;;;;;;;17.50;99.90;;;;;;4214242;28;19961;-57
2022/08/21 00:14:02;;;;;;;;;;;17.60;99.90;;;;;;4214488;28;19935;-56
2022/08/21 00:16:04;;;;;;;;;;;17.60;99.90;;;;;;4214663;28;19974;-56
2022/08/21 00:18:08;;;;;;;;;;;17.50;99.90;;;;;;4214371;28;19973;-56
2022/08/21 00:20:11;;;;;;;;;;;17.30;99.90;;;;;;4214544;28;19924;-56
2022/08/21 00:22:13;;;;;;;;;;;17.20;99.90;;;;;;4214429;28;19954;-56
2022/08/21 00:24:15;;;;;;;;;;;17.30;99.90;;;;;;4196554;28;20014;-56
2022/08/21 00:26:17;;;;;;;;;;;17.30;99.90;;;;;;4214317;28;19932;-57
2022/08/21 00:28:19;;;;;;;;;;;17.30;99.90;;;;;;4214587;28;19924;-56
2022/08/21 00:30:22;;;;;;;;;;;17.40;99.90;;;;;;4213953;28;20324;-56
2022/08/21 00:32:25;;;;;;;;;;;17.50;99.90;;;;;;4214201;28;19997;-57
2022/08/21 00:34:27;;;;;;;;;;;17.50;99.90;;;;;;4214111;28;19924;-56
2022/08/21 00:36:29;;;;;;;;;;;17.50;99.90;;;;;;4214015;28;19934;-56
2022/08/21 00:38:31;;;;;;;;;;;17.50;99.90;;;;;;4214403;28;19935;-57
2022/08/21 00:40:44;;;;;;;;;;;17.50;99.90;;;;;;4214292;28;19946;-57
2022/08/21 00:42:46;;;;;;;;;;;17.50;99.90;;;;;;4213800;28;20003;-56
2022/08/21 00:44:53;;;;;;;;;;;17.50;99.90;;;;;;4213522;28;19931;-57
2022/08/21 00:46:55;;;;;;;;;;;17.60;99.90;;;;;;4195964;28;19924;-58
2022/08/21 00:48:57;;;;;;;;;;;17.60;99.90;;;;;;4214093;28;19924;-56
2022/08/21 00:51:03;;;;;;;;;;;17.60;99.90;;;;;;4214306;28;20383;-56
2022/08/21 00:53:05;;;;;;;;;;;17.50;99.90;;;;;;4213852;28;20015;-56
2022/08/21 00:55:09;;;;;;;;;;;17.50;99.90;;;;;;4195998;28;19928;-57
2022/08/21 00:57:17;;;;;;;;;;;17.40;99.90;;;;;;4195949;28;19928;-57
2022/08/21 00:59:20;;;;;;;;;;;17.40;99.90;;;;;;4213641;28;19924;-56
2022/08/21 01:01:22;;;;;;;;;;;17.40;99.90;;;;;;4196313;28;19935;-56
2022/08/21 01:03:25;;;;;;;;;;;17.40;99.90;;;;;;4213888;28;19931;-56
2022/08/21 01:05:27;;;;;;;;;;;17.40;99.90;;;;;;4213686;28;19967;-56
2022/08/21 01:07:29;;;;;;;;;;;17.20;99.90;;;;;;4213473;28;19931;-58
2022/08/21 01:09:31;;;;;;;;;;;17.20;99.90;;;;;;4213746;28;19931;-58
2022/08/21 01:11:32;;;;;;;;;;;17.10;99.90;;;;;;4213928;28;19931;-57
2022/08/21 01:13:36;;;;;;;;;;;17.10;99.90;;;;;;4213528;28;19925;-57
2022/08/21 01:15:41;;;;;;;;;;;17.10;99.90;;;;;;4195690;28;19924;-56
2022/08/21 01:17:43;;;;;;;;;;;17.10;99.90;;;;;;4195825;28;19924;-56
2022/08/21 01:19:45;;;;;;;;;;;17.00;99.90;;;;;;4213655;28;19994;-56
2022/08/21 01:21:47;;;;;;;;;;;17.10;99.90;;;;;;4213489;28;19932;-56
2022/08/21 01:23:52;;;;;;;;;;;17.10;99.90;;;;;;4213360;28;19928;-56
2022/08/21 01:25:53;;;;;;;;;;;17.10;99.90;;;;;;4213396;28;19953;-57
2022/08/21 01:27:56;;;;;;;;;;;17.10;99.90;;;;;;4213182;28;20033;-58
2022/08/21 01:30:01;;;;;;;;;;;17.00;99.90;;;;;;4213306;28;19932;-57
2022/08/21 01:32:05;;;;;;;;;;;17.00;99.90;;;;;;4213225;28;19935;-56
2022/08/21 01:34:07;;;;;;;;;;;17.00;99.90;;;;;;4212950;28;20319;-57
2022/08/21 01:36:09;;;;;;;;;;;17.00;99.90;;;;;;4213333;28;19928;-57
2022/08/21 01:38:12;;;;;;;;;;;17.00;99.90;;;;;;4212877;28;19924;-57
2022/08/21 01:40:15;;;;;;;;;;;17.00;99.90;;;;;;4213211;28;19931;-56
2022/08/21 01:42:17;;;;;;;;;;;17.00;99.90;;;;;;4195023;28;20011;-57
2022/08/21 01:44:23;;;;;;;;;;;17.00;99.90;;;;;;4213116;28;19928;-56
2022/08/21 01:46:25;;;;;;;;;;;16.90;99.90;;;;;;4213202;28;20406;-56
2022/08/21 01:48:27;;;;;;;;;;;16.90;99.90;;;;;;4212888;28;20388;-56
2022/08/21 01:50:29;;;;;;;;;;;17.00;99.90;;;;;;4213139;28;19931;-58
2022/08/21 01:52:31;;;;;;;;;;;16.80;99.90;;;;;;4213019;28;20236;-58
2022/08/21 01:54:33;;;;;;;;;;;16.90;99.90;;;;;;4212991;28;19973;-56
2022/08/21 01:56:40;;;;;;;;;;;16.90;99.90;;;;;;4212819;28;19924;-57
2022/08/21 01:58:44;;;;;;;;;;;17.00;99.90;;;;;;4213288;28;19930;-56
2022/08/21 02:00:46;;;;;;;;;;;17.00;99.90;;;;;;4196151;28;19932;-57
2022/08/21 02:02:48;;;;;;;;;;;17.10;99.90;;;;;;4203142;28;19931;-56
2022/08/21 02:04:50;;;;;;;;;;;17.00;99.90;;;;;;4212918;28;19967;-57
2022/08/21 02:06:52;;;;;;;;;;;17.00;99.90;;;;;;4212403;28;20015;-57
2022/08/21 02:08:54;;;;;;;;;;;17.00;99.90;;;;;;4212647;28;19946;-57
2022/08/21 02:10:56;;;;;;;;;;;17.10;99.90;;;;;;4212957;28;20383;-56
2022/08/21 02:12:59;;;;;;;;;;;17.00;99.90;;;;;;4194722;28;19962;-56
2022/08/21 02:15:03;;;;;;;;;;;16.90;99.90;;;;;;4212756;28;19928;-57
2022/08/21 02:17:05;;;;;;;;;;;16.90;99.90;;;;;;4212696;28;19931;-57
2022/08/21 02:19:10;;;;;;;;;;;16.90;99.90;;;;;;4212754;28;19963;-57
2022/08/21 02:21:12;;;;;;;;;;;17.00;99.90;;;;;;4194373;28;19951;-57
2022/08/21 02:23:14;;;;;;;;;;;17.00;99.90;;;;;;4212546;28;20354;-57
2022/08/21 02:25:17;;;;;;;;;;;17.00;99.90;;;;;;4212744;28;19928;-56
2022/08/21 02:27:19;;;;;;;;;;;17.10;99.90;;;;;;4212772;28;20371;-56
2022/08/21 02:29:27;;;;;;;;;;;17.10;99.90;;;;;;4212213;28;19932;-57
2022/08/21 02:31:29;;;;;;;;;;;17.10;99.90;;;;;;4212421;28;19928;-57
2022/08/21 02:33:33;;;;;;;;;;;17.10;99.90;;;;;;4212291;28;19967;-58
2022/08/21 02:35:36;;;;;;;;;;;17.00;99.90;;;;;;4212327;28;20384;-57
2022/08/21 02:37:44;;;;;;;;;;;17.00;99.90;;;;;;4212193;28;19928;-56
2022/08/21 02:39:46;;;;;;;;;;;17.00;99.90;;;;;;4212516;28;20288;-56
2022/08/21 02:41:48;;;;;;;;;;;17.00;99.90;;;;;;4212042;28;19924;-56
2022/08/21 02:43:50;;;;;;;;;;;17.00;99.90;;;;;;4194132;28;19929;-56
2022/08/21 02:45:53;;;;;;;;;;;17.00;99.90;;;;;;4194259;28;20514;-57
2022/08/21 02:47:57;;;;;;;;;;;16.90;99.90;;;;;;4193660;28;19962;-57
2022/08/21 02:49:59;;;;;;;;;;;17.00;99.90;;;;;;4212255;28;20019;-56
2022/08/21 02:52:01;;;;;;;;;;;16.90;99.90;;;;;;4212563;28;19924;-56
2022/08/21 02:54:03;;;;;;;;;;;16.90;99.90;;;;;;4212098;28;20035;-57
2022/08/21 02:56:07;;;;;;;;;;;16.80;99.90;;;;;;4212249;28;20464;-56
2022/08/21 02:58:09;;;;;;;;;;;16.70;99.90;;;;;;4212106;28;20440;-57
2022/08/21 03:00:12;;;;;;;;;;;16.70;99.90;;;;;;4212284;28;19924;-57
2022/08/21 03:02:14;;;;;;;;;;;16.60;99.90;;;;;;4211700;28;19928;-57
2022/08/21 03:04:16;;;;;;;;;;;16.50;99.90;;;;;;4211948;28;20383;-56
2022/08/21 03:06:19;;;;;;;;;;;16.60;99.90;;;;;;4211999;28;19971;-58
2022/08/21 03:08:21;;;;;;;;;;;16.80;99.90;;;;;;4211731;28;19928;-56
2022/08/21 03:10:25;;;;;;;;;;;16.80;99.90;;;;;;4211987;28;19931;-57
2022/08/21 03:12:26;;;;;;;;;;;16.90;99.90;;;;;;4194040;28;19968;-57
2022/08/21 03:14:31;;;;;;;;;;;16.80;99.90;;;;;;4212291;28;19930;-57
2022/08/21 03:16:33;;;;;;;;;;;16.90;99.90;;;;;;4212111;28;19964;-58
2022/08/21 03:18:37;;;;;;;;;;;16.80;99.90;;;;;;4211884;28;19930;-57
2022/08/21 03:20:40;;;;;;;;;;;16.80;99.90;;;;;;4211945;28;19973;-56
2022/08/21 03:22:42;;;;;;;;;;;16.70;99.90;;;;;;4211680;28;20464;-58
2022/08/21 03:24:46;;;;;;;;;;;16.80;99.90;;;;;;4212205;28;19931;-56
2022/08/21 03:26:48;;;;;;;;;;;16.70;99.90;;;;;;4211817;28;19928;-57
2022/08/21 03:28:50;;;;;;;;;;;16.70;99.90;;;;;;4211927;28;19924;-57
2022/08/21 03:30:53;;;;;;;;;;;16.70;99.90;;;;;;4211760;28;19928;-57
2022/08/21 03:32:55;;;;;;;;;;;16.70;99.90;;;;;;4211798;28;20018;-57
2022/08/21 03:34:57;;;;;;;;;;;16.60;99.90;;;;;;4216082;28;19924;-56
2022/08/21 03:36:59;;;;;;;;;;;16.60;99.90;;;;;;4210457;28;19928;-57
2022/08/21 03:39:01;;;;;;;;;;;16.50;99.90;;;;;;4198991;28;19931;-58
2022/08/21 03:41:04;;;;;;;;;;;16.60;99.90;;;;;;4193579;28;19932;-57
2022/08/21 03:43:08;;;;;;;;;;;16.50;99.90;;;;;;4211508;28;20015;-57
2022/08/21 03:45:10;;;;;;;;;;;16.60;99.90;;;;;;4211734;28;19932;-56
2022/08/21 03:47:12;;;;;;;;;;;16.60;99.90;;;;;;4211420;28;19932;-57
2022/08/21 03:49:15;;;;;;;;;;;16.60;99.90;;;;;;4194932;28;20398;-59
2022/08/21 03:51:17;;;;;;;;;;;16.50;99.90;;;;;;4202714;28;19981;-57
2022/08/21 03:53:19;;;;;;;;;;;16.50;99.90;;;;;;4211933;28;19935;-57
2022/08/21 03:55:21;;;;;;;;;;;16.50;99.90;;;;;;4211166;28;20347;-56
2022/08/21 03:57:23;;;;;;;;;;;16.50;99.90;;;;;;4211832;28;19939;-57
2022/08/21 03:59:25;;;;;;;;;;;16.60;99.90;;;;;;4193483;28;19933;-56
2022/08/21 04:01:27;;;;;;;;;;;16.60;99.90;;;;;;4211436;28;19932;-56
2022/08/21 04:03:29;;;;;;;;;;;16.70;99.90;;;;;;4211396;28;19924;-58
2022/08/21 04:05:32;;;;;;;;;;;16.70;99.90;;;;;;4211565;28;20010;-58
2022/08/21 04:07:35;;;;;;;;;;;16.70;99.90;;;;;;4211366;28;19927;-57
2022/08/21 04:09:37;;;;;;;;;;;16.60;99.90;;;;;;4211797;28;19981;-57
2022/08/21 04:11:39;;;;;;;;;;;16.50;99.90;;;;;;4211326;28;20450;-59
2022/08/21 04:13:41;;;;;;;;;;;16.50;99.90;;;;;;4211384;28;19993;-57
2022/08/21 04:15:45;;;;;;;;;;;16.60;99.90;;;;;;4193567;28;19929;-57
2022/08/21 04:17:48;;;;;;;;;;;16.60;99.90;;;;;;4211345;28;19932;-56
2022/08/21 04:19:50;;;;;;;;;;;16.50;99.90;;;;;;4194253;28;20005;-58
2022/08/21 04:21:54;;;;;;;;;;;16.60;99.90;;;;;;4214261;28;19927;-58
2022/08/21 04:23:56;;;;;;;;;;;16.60;99.90;;;;;;4214275;28;19993;-57
2022/08/21 04:25:58;;;;;;;;;;;16.50;99.90;;;;;;4214247;28;19932;-57
2022/08/21 04:28:01;;;;;;;;;;;16.50;99.90;;;;;;4214341;28;20392;-57
2022/08/21 04:30:03;;;;;;;;;;;16.40;99.90;;;;;;4214479;28;19924;-56
2022/08/21 04:32:05;;;;;;;;;;;16.50;99.90;;;;;;4213811;28;19924;-57
2022/08/21 04:34:08;;;;;;;;;;;16.50;99.90;;;;;;4196427;28;20184;-57
2022/08/21 04:36:10;;;;;;;;;;;16.50;99.90;;;;;;4196015;28;19924;-57
2022/08/21 04:38:12;;;;;;;;;;;16.50;99.90;;;;;;4214515;28;19928;-57
2022/08/21 04:40:15;;;;;;;;;;;16.40;99.90;;;;;;4214202;28;19928;-57
2022/08/21 04:42:17;;;;;;;;;;;16.40;99.90;;;;;;4213818;28;19928;-56
2022/08/21 04:44:19;;;;;;;;;;;16.30;99.90;;;;;;4213712;28;20411;-56
2022/08/21 04:46:21;;;;;;;;;;;16.30;99.90;;;;;;4196144;28;20460;-57
2022/08/21 04:48:23;;;;;;;;;;;16.30;99.90;;;;;;4212479;28;19924;-56
2022/08/21 04:50:29;;;;;;;;;;;16.30;99.90;;;;;;4219559;28;19928;-56
2022/08/21 04:52:33;;;;;;;;;;;16.20;99.90;;;;;;4195878;28;19968;-57
2022/08/21 04:54:36;;;;;;;;;;;16.20;99.90;;;;;;4213881;28;20030;-57
2022/08/21 04:56:51;;;;;;;;;;;16.30;99.90;;;;;;4213884;28;20277;-56
2022/08/21 04:58:55;;;;;;;;;;;16.20;99.90;;;;;;4213720;28;19928;-57
2022/08/21 05:00:57;;;;;;;;;;;16.10;99.90;;;;;;4195753;28;19929;-56
2022/08/21 05:03:00;;;;;;;;;;;16.20;99.90;;;;;;4213693;28;19931;-58
2022/08/21 05:05:03;;;;;;;;;;;16.30;99.90;;;;;;4213563;28;20035;-56
2022/08/21 05:07:06;;;;;;;;;;;16.20;99.90;;;;;;4213917;28;19927;-57
2022/08/21 05:09:09;;;;;;;;;;;16.20;99.90;;;;;;4213648;28;19935;-56
2022/08/21 05:11:11;;;;;;;;;;;16.20;99.90;;;;;;4213477;28;19928;-57
2022/08/21 05:13:13;;;;;;;;;;;16.20;99.90;;;;;;4213741;28;19935;-56
2022/08/21 05:15:16;;;;;;;;;;;16.20;99.90;;;;;;4213285;28;19936;-57
2022/08/21 05:17:18;;;;;;;;;;;16.30;99.90;;;;;;4213401;28;19963;-56
2022/08/21 05:19:20;;;;;;;;;;;16.30;99.90;;;;;;4213770;28;19924;-56
2022/08/21 05:21:22;;;;;;;;;;;16.30;99.90;;;;;;4213297;28;20315;-57
2022/08/21 05:23:24;;;;;;;;;;;16.20;99.90;;;;;;4213670;28;19934;-57
2022/08/21 05:25:27;;;;;;;;;;;16.20;99.90;;;;;;4213656;28;20019;-56
2022/08/21 05:27:29;;;;;;;;;;;16.30;99.90;;;;;;4213657;28;19935;-56
2022/08/21 05:29:32;;;;;;;;;;;16.30;99.90;;;;;;4213651;28;19925;-57
2022/08/21 05:31:34;;;;;;;;;;;16.30;99.90;;;;;;4212775;28;19931;-56
2022/08/21 05:33:36;;;;;;;;;;;16.20;99.90;;;;;;4213171;28;19966;-57
2022/08/21 05:35:38;;;;;;;;;;;16.20;99.90;;;;;;4213295;28;20291;-56
2022/08/21 05:37:40;;;;;;;;;;;16.30;99.90;;;;;;4213212;28;19931;-56
2022/08/21 05:39:42;;;;;;;;;;;16.30;99.90;;;;;;4213084;28;19930;-57
2022/08/21 05:42:04;;;;;;;;;;;16.20;99.90;;;;;;4213194;28;20006;-56
2022/08/21 05:44:06;;;;;;;;;;;16.20;99.90;;;;;;4213029;28;19967;-57
2022/08/21 05:46:11;;;;;;;;;;;16.30;99.90;;;;;;4195216;28;19974;-56
2022/08/21 05:48:15;;;;;;;;;;;16.30;99.90;;;;;;4212576;28;19925;-57
2022/08/21 05:50:17;;;;;;;;;;;16.30;99.90;;;;;;4213139;28;20050;-56
2022/08/21 05:52:20;;;;;;;;;;;16.30;99.90;;;;;;4212744;28;19935;-56
2022/08/21 05:54:22;;;;;;;;;;;16.40;99.90;;;;;;4213056;28;19924;-56
2022/08/21 05:56:24;;;;;;;;;;;16.40;99.90;;;;;;4212577;28;19935;-56
2022/08/21 05:58:26;;;;;;;;;;;16.50;99.90;;;;;;4212973;28;20366;-57
2022/08/21 06:00:29;;;;;;;;;;;16.50;99.90;;;;;;4213274;28;20459;-56
2022/08/21 06:02:31;;;;;;;;;;;16.60;99.90;;;;;;4213086;28;19925;-56
2022/08/21 06:04:36;;;;;;;;;;;16.60;99.90;;;;;;4213049;28;19975;-57
2022/08/21 06:06:39;;;;;;;;;;;16.60;99.90;;;;;;4212842;28;19924;-57
2022/08/21 06:08:41;;;;;;;;;;;16.70;99.90;;;;;;4212670;28;19970;-56
2022/08/21 06:10:43;;;;;;;;;;;16.70;99.90;;;;;;4213147;28;20364;-56
2022/08/21 06:12:45;;;;;;;;;;;16.80;99.90;;;;;;4195769;28;20423;-56
2022/08/21 06:14:47;;;;;;;;;;;16.90;99.90;;;;;;4203073;28;19928;-56
2022/08/21 06:16:49;;;;;;;;;;;17.00;99.90;;;;;;4212801;28;19932;-56
2022/08/21 06:18:51;;;;;;;;;;;16.90;99.90;;;;;;4212215;28;20383;-57
2022/08/21 06:20:53;;;;;;;;;;;16.90;99.90;;;;;;4197111;28;19971;-56
2022/08/21 06:22:55;;;;;;;;;;;17.00;99.90;;;;;;4211989;28;20404;-56
2022/08/21 06:24:57;;;;;;;;;;;17.10;99.90;;;;;;4212541;28;19924;-56
2022/08/21 06:27:08;;;;;;;;;;;17.00;99.90;;;;;;4194533;28;19971;-56
2022/08/21 06:29:15;;;;;;;;;;;17.10;99.90;;;;;;4194699;28;19928;-56
2022/08/21 06:31:18;;;;;;;;;;;17.20;99.90;;;;;;4212445;28;19923;-57
2022/08/21 06:33:20;;;;;;;;;;;17.40;99.90;;;;;;4212413;28;19940;-57
2022/08/21 06:35:24;;;;;;;;;;;17.50;99.90;;;;;;4198352;28;19951;-58
2022/08/21 06:37:26;;;;;;;;;;;17.40;99.90;;;;;;4212835;28;19928;-57
2022/08/21 06:39:29;;;;;;;;;;;17.40;99.90;;;;;;4212575;28;19967;-56
2022/08/21 06:41:33;;;;;;;;;;;17.30;99.90;;;;;;4212338;28;20019;-57
2022/08/21 06:43:38;;;;;;;;;;;17.40;99.90;;;;;;4211540;28;20299;-56
2022/08/21 06:45:41;;;;;;;;;;;17.50;99.90;;;;;;4212476;28;19977;-56
2022/08/21 06:47:43;;;;;;;;;;;17.60;99.90;;;;;;4211516;28;19935;-56
2022/08/21 06:49:45;;;;;;;;;;;17.80;99.90;;;;;;4212575;28;19935;-57
2022/08/21 06:51:47;;;;;;;;;;;18.00;99.90;;;;;;4211759;28;19932;-57
2022/08/21 06:53:49;;;;;;;;;;;18.10;99.90;;;;;;4192736;28;19929;-56
2022/08/21 06:55:52;;;;;;;;;;;18.20;99.90;;;;;;4212429;28;20409;-57
2022/08/21 06:57:54;;;;;;;;;;;18.20;99.90;;;;;;4212107;28;19998;-56
2022/08/21 06:59:56;;;;;;;;;;;18.40;99.90;;;;;;4211992;28;19935;-57
2022/08/21 07:01:58;;;;;;;;;;;18.70;99.90;;;;;;4212139;28;19928;-56
2022/08/21 07:04:01;;;;;;;;;;;18.90;99.90;;;;;;4212102;28;19924;-57
2022/08/21 07:06:03;;;;;;;;;;;19.30;99.90;;;;;;4211986;28;19931;-57
2022/08/21 07:08:05;;;;;;;;;;;19.40;99.90;;;;;;4212016;28;19928;-57
2022/08/21 07:10:07;;;;;;;;;;;19.30;99.90;;;;;;4212077;28;19924;-57
2022/08/21 07:12:09;;;;;;;;;;;19.30;99.90;;;;;;4212100;28;20318;-56
2022/08/21 07:14:11;;;;;;;;;;;19.30;99.90;;;;;;4212107;28;20023;-56
2022/08/21 07:16:13;;;;;;;;;;;19.50;99.90;;;;;;4193144;28;20011;-56
2022/08/21 07:18:15;;;;;;;;;;;19.80;99.90;;;;;;4209227;28;19928;-57
2022/08/21 07:20:17;;;;;;;;;;;20.10;99.90;;;;;;4193542;28;20344;-56
2022/08/21 07:22:20;;;;;;;;;;;20.00;99.90;;;;;;4211765;28;19932;-57
2022/08/21 07:24:22;;;;;;;;;;;20.10;99.90;;;;;;4211780;28;20383;-56
2022/08/21 07:26:25;;;;;;;;;;;20.20;99.90;;;;;;4212263;28;19928;-57
2022/08/21 07:28:28;;;;;;;;;;;20.20;99.90;;;;;;4212253;28;19924;-57
2022/08/21 07:30:30;;;;;;;;;;;20.20;99.90;;;;;;4215602;28;19928;-57
2022/08/21 07:32:32;;;;;;;;;;;20.50;99.90;;;;;;4215386;28;19924;-57
2022/08/21 07:34:34;;;;;;;;;;;20.60;99.90;;;;;;4211774;28;19928;-56
2022/08/21 07:36:36;;;;;;;;;;;20.80;99.90;;;;;;4211928;28;19925;-57
2022/08/21 07:38:38;;;;;;;;;;;20.90;99.90;;;;;;4211775;28;19924;-56
2022/08/21 07:40:40;;;;;;;;;;;21.00;99.90;;;;;;4193993;28;19932;-58
2022/08/21 07:42:43;;;;;;;;;;;21.30;99.90;;;;;;4211937;28;19928;-57
2022/08/21 07:44:45;;;;;;;;;;;21.40;99.90;;;;;;4211357;28;19928;-56
2022/08/21 07:46:49;;;;;;;;;;;21.80;99.90;;;;;;4211625;28;20023;-56
2022/08/21 07:48:52;;;;;;;;;;;21.70;99.90;;;;;;4211673;28;20332;-57
2022/08/21 07:50:55;;;;;;;;;;;21.60;99.90;;;;;;4211837;28;20338;-57
2022/08/21 07:52:57;;;;;;;;;;;21.60;99.90;;;;;;4211797;28;19924;-57
2022/08/21 07:54:59;;;;;;;;;;;22.10;99.90;;;;;;4214361;28;19924;-57
2022/08/21 07:57:06;;;;;;;;;;;22.30;99.90;;;;;;4215250;28;19928;-57
2022/08/21 07:59:07;;;;;;;;;;;22.40;99.90;;;;;;4214866;28;19931;-56
2022/08/21 08:01:10;;;;;;;;;;;22.60;99.90;;;;;;4215146;28;19928;-57
2022/08/21 08:03:12;;;;;;;;;;;22.60;99.90;;;;;;4214391;28;19934;-57
2022/08/21 08:05:14;;;;;;;;;;;23.00;99.90;;;;;;4210910;28;19951;-56
2022/08/21 08:07:16;;;;;;;;;;;22.80;99.90;;;;;;4212590;28;19934;-56
2022/08/21 08:09:18;;;;;;;;;;;23.10;99.90;;;;;;4214472;28;20303;-58
2022/08/21 08:11:20;;;;;;;;;;;23.10;99.90;;;;;;4214754;28;19938;-58
2022/08/21 08:13:22;;;;;;;;;;;23.20;99.90;;;;;;4219568;28;20466;-56
2022/08/21 08:15:25;;;;;;;;;;;23.30;99.90;;;;;;4214169;28;19935;-57
2022/08/21 08:17:27;;;;;;;;;;;23.50;99.90;;;;;;4219381;28;19924;-57
2022/08/21 08:19:30;;;;;;;;;;;23.80;99.90;;;;;;4196333;28;20132;-56
2022/08/21 08:21:33;;;;;;;;;;;24.10;99.90;;;;;;4214886;28;20125;-57
2022/08/21 08:23:35;;;;;;;;;;;23.90;99.90;;;;;;4214621;28;19954;-56
2022/08/21 08:25:37;;;;;;;;;;;24.10;99.90;;;;;;4214794;28;19924;-57
2022/08/21 08:27:39;;;;;;;;;;;24.20;99.90;;;;;;4214765;28;19928;-56
2022/08/21 08:29:42;;;;;;;;;;;24.20;99.90;;;;;;4215396;28;19924;-58
2022/08/21 08:31:44;;;;;;;;;;;24.30;99.90;;;;;;4214430;28;19924;-57
2022/08/21 08:33:46;;;;;;;;;;;24.80;99.90;;;;;;4196261;28;19924;-57
2022/08/21 08:35:49;;;;;;;;;;;24.90;99.90;;;;;;4214157;28;20301;-57
2022/08/21 08:37:51;;;;;;;;;;;24.90;99.90;;;;;;4216848;28;19928;-58
2022/08/21 08:39:53;;;;;;;;;;;25.00;99.90;;;;;;4214215;28;19928;-58
2022/08/21 08:42:01;;;;;;;;;;;24.90;99.90;;;;;;4213889;28;20292;-58
2022/08/21 08:44:05;;;;;;;;;;;25.30;99.90;;;;;;4213743;28;20022;-58
2022/08/21 08:46:11;;;;;;;;;;;25.30;99.90;;;;;;4214452;28;20366;-57
2022/08/21 08:48:16;;;;;;;;;;;25.60;99.90;;;;;;4213985;28;19931;-57
2022/08/21 08:50:23;;;;;;;;;;;25.80;99.90;;;;;;4214149;28;19934;-57
2022/08/21 08:52:33;;;;;;;;;;;25.90;99.90;;;;;;4214224;28;20363;-57
2022/08/21 08:54:59;;;;;;;;;;;25.70;99.90;;;;;;4213986;28;20027;-57
2022/08/21 08:57:02;;;;;;;;;;;25.50;99.90;;;;;;4198882;28;19929;-59
2022/08/21 08:59:16;;;;;;;;;;;25.90;99.90;;;;;;4197123;28;20443;-58
2022/08/21 09:01:19;;;;;;;;;;;25.60;99.90;;;;;;4210918;28;20009;-57
2022/08/21 09:03:25;;;;;;;;;;;25.70;99.90;;;;;;4211713;28;19927;-60
2022/08/21 09:05:28;;;;;;;;;;;26.00;99.90;;;;;;4183817;28;20384;-59
2022/08/21 09:07:47;;;;;;;;;;;26.00;99.90;;;;;;4213189;28;20438;-57
2022/08/21 09:09:52;;;;;;;;;;;26.30;99.90;;;;;;4205910;28;19951;-57
2022/08/21 09:11:57;;;;;;;;;;;26.80;99.90;;;;;;4213762;28;19928;-57
2022/08/21 09:14:13;;;;;;;;;;;26.70;99.90;;;;;;4210852;28;20350;-57
2022/08/21 09:16:24;;;;;;;;;;;26.60;99.90;;;;;;4204361;28;19935;-57
2022/08/21 09:18:34;;;;;;;;;;;26.80;99.90;;;;;;4207768;28;19932;-58
2022/08/21 09:20:55;;;;;;;;;;;26.90;99.90;;;;;;4207060;28;20026;-58
2022/08/21 09:23:16;;;;;;;;;;;26.60;99.90;;;;;;4213553;28;20030;-57
2022/08/21 09:25:18;;;;;;;;;;;26.80;99.90;;;;;;4212681;28;20174;-58
2022/08/21 09:27:21;;;;;;;;;;;26.80;99.90;;;;;;4212722;28;19931;-59
2022/08/21 09:29:25;;;;;;;;;;;26.80;99.90;;;;;;4210186;28;20402;-57
2022/08/21 09:31:32;;;;;;;;;;;27.00;99.90;;;;;;4218994;28;19954;-57
2022/08/21 09:33:34;;;;;;;;;;;26.90;99.90;;;;;;4215321;28;19927;-58
2022/08/21 09:35:37;;;;;;;;;;;26.80;99.90;;;;;;4207617;28;19924;-58
2022/08/21 09:37:45;;;;;;;;;;;27.10;99.90;;;;;;4201691;28;19928;-58
2022/08/21 09:39:47;;;;;;;;;;;27.10;99.90;;;;;;4217202;28;20319;-56
2022/08/21 09:41:55;;;;;;;;;;;27.10;99.90;;;;;;4209465;28;19971;-57
2022/08/21 09:43:57;;;;;;;;;;;27.10;99.90;;;;;;4209430;28;20455;-58
2022/08/21 09:46:09;;;;;;;;;;;27.60;99.90;;;;;;4201248;28;19928;-58
2022/08/21 09:48:17;;;;;;;;;;;27.70;99.90;;;;;;4220242;28;19928;-58
2022/08/21 09:50:21;;;;;;;;;;;27.60;99.90;;;;;;4205859;28;19932;-57
2022/08/21 09:52:25;;;;;;;;;;;27.70;99.90;;;;;;4206654;28;20296;-57
2022/08/21 09:54:31;;;;;;;;;;;27.80;99.90;;;;;;4200066;28;19960;-58
2022/08/21 09:58:53;;;;;;;;;;;28.30;99.90;;;;;;4198918;28;20346;-59
2022/08/21 10:00:57;;;;;;;;;;;28.20;99.90;;;;;;4199865;28;20306;-59
2022/08/21 10:03:28;;;;;;;;;;;28.20;99.90;;;;;;4206965;28;19932;-57
2022/08/21 10:05:30;;;;;;;;;;;28.50;99.90;;;;;;4160932;28;19983;-57
2022/08/21 10:07:36;;;;;;;;;;;28.50;99.90;;;;;;4159659;28;19933;-58
2022/08/21 10:09:38;;;;;;;;;;;29.00;99.90;;;;;;4133286;28;20421;-57
2022/08/21 10:11:43;;;;;;;;;;;28.50;99.90;;;;;;4136339;28;19929;-57
2022/08/21 10:13:57;;;;;;;;;;;28.60;99.90;;;;;;4157661;28;19959;-58
2022/08/21 10:16:07;;;;;;;;;;;28.80;99.90;;;;;;4160952;28;19924;-57
2022/08/21 10:18:27;;;;;;;;;;;28.90;99.90;;;;;;4160377;28;19990;-57
2022/08/21 10:20:49;;;;;;;;;;;29.10;99.90;;;;;;4144651;28;19929;-59
2022/08/21 10:22:56;;;;;;;;;;;28.90;99.10;;;;;;4160106;28;19933;-57
2022/08/21 10:25:07;;;;;;;;;;;28.80;99.90;;;;;;4160969;28;19932;-57
2022/08/21 10:27:15;;;;;;;;;;;28.90;99.90;;;;;;4158945;28;19925;-58
2022/08/21 10:29:18;;;;;;;;;;;28.90;99.70;;;;;;4159262;28;19925;-58
2022/08/21 10:31:29;;;;;;;;;;;28.80;99.90;;;;;;4142262;28;19960;-58
2022/08/21 10:33:57;;;;;;;;;;;28.60;98.90;;;;;;4160596;28;20040;-58
2022/08/21 10:36:04;;;;;;;;;;;28.90;99.90;;;;;;4136771;28;19932;-57
2022/08/21 10:38:24;;;;;;;;;;;29.20;99.90;;;;;;4151292;28;19965;-58
2022/08/21 10:41:18;;;;;;;;;;;29.20;99.30;;;;;;4155394;28;19940;-59
2022/08/21 10:43:20;;;;;;;;;;;29.10;99.50;;;;;;4160344;28;20324;-57
2022/08/21 10:45:32;;;;;;;;;;;29.30;99.40;;;;;;4160853;28;20024;-58
2022/08/21 10:48:02;;;;;;;;;;;29.20;98.50;;;;;;4169260;28;20143;-58
2022/08/21 10:50:04;;;;;;;;;;;29.20;99.90;;;;;;4157482;28;20027;-58
2022/08/21 10:52:32;;;;;;;;;;;29.30;99.20;;;;;;4160674;28;19929;-57
2022/08/21 10:54:40;;;;;;;;;;;29.60;99.90;;;;;;4157026;28;20383;-57
2022/08/21 10:56:43;;;;;;;;;;;29.60;98.10;;;;;;4160866;28;19940;-57
2022/08/21 10:59:04;;;;;;;;;;;29.40;97.50;;;;;;4164843;28;20389;-58
2022/08/21 11:01:24;;;;;;;;;;;29.50;98.60;;;;;;4160387;28;20290;-58
2022/08/21 11:03:33;;;;;;;;;;;29.50;97.30;;;;;;4144373;28;20305;-57
2022/08/21 11:05:49;;;;;;;;;;;29.70;97.00;;;;;;4160504;28;19925;-58
2022/08/21 11:08:12;;;;;;;;;;;29.50;96.10;;;;;;4144168;28;20445;-57
2022/08/21 11:10:22;;;;;;;;;;;29.60;98.60;;;;;;4177248;28;20400;-58
2022/08/21 11:12:34;;;;;;;;;;;29.60;98.00;;;;;;4161452;28;19979;-57
2022/08/21 11:14:41;;;;;;;;;;;29.70;96.50;;;;;;4160461;28;19929;-59
2022/08/21 11:16:57;;;;;;;;;;;29.60;97.00;;;;;;4112857;28;19938;-58
2022/08/21 11:18:58;;;;;;;;;;;29.60;97.90;;;;;;4160364;28;20115;-58
2022/08/21 11:21:01;;;;;;;;;;;30.20;97.50;;;;;;4184757;28;19929;-58
2022/08/21 11:23:08;;;;;;;;;;;30.10;96.10;;;;;;4212196;28;19935;-57
2022/08/21 11:25:17;;;;;;;;;;;29.90;98.00;;;;;;4211908;28;19932;-57
2022/08/21 11:27:26;;;;;;;;;;;29.50;96.90;;;;;;4212203;28;19932;-57
2022/08/21 11:29:39;;;;;;;;;;;29.50;96.20;;;;;;4214058;28;20300;-57
2022/08/21 11:31:44;;;;;;;;;;;29.80;98.00;;;;;;4207635;28;19979;-58
2022/08/21 11:33:58;;;;;;;;;;;29.60;96.00;;;;;;4215642;28;19924;-59
2022/08/21 11:36:06;;;;;;;;;;;29.30;95.20;;;;;;4215721;28;20466;-58
2022/08/21 11:38:18;;;;;;;;;;;29.50;95.70;;;;;;4188144;28;19924;-59
2022/08/21 11:40:38;;;;;;;;;;;29.30;97.60;;;;;;4215711;28;19934;-57
2022/08/21 11:43:03;;;;;;;;;;;29.50;97.90;;;;;;4215141;28;20332;-57
2022/08/21 11:45:22;;;;;;;;;;;29.20;97.60;;;;;;4214667;28;19924;-57
2022/08/21 11:47:40;;;;;;;;;;;28.80;98.10;;;;;;4193782;28;19929;-58
2022/08/21 11:50:00;;;;;;;;;;;28.80;97.70;;;;;;4206006;28;20027;-58
2022/08/21 11:52:11;;;;;;;;;;;28.80;98.20;;;;;;4215279;28;19971;-58
2022/08/21 11:54:31;;;;;;;;;;;28.90;97.80;;;;;;4197060;28;19951;-60
2022/08/21 11:56:38;;;;;;;;;;;29.00;99.10;;;;;;4215211;28;19957;-58
2022/08/21 11:58:52;;;;;;;;;;;28.90;98.40;;;;;;4213793;28;20442;-58
2022/08/21 12:00:59;;;;;;;;;;;28.80;98.60;;;;;;4200126;28;19928;-59
2022/08/21 12:03:27;;;;;;;;;;;28.70;99.30;;;;;;4210033;28;19932;-58
2022/08/21 12:05:31;;;;;;;;;;;28.80;98.90;;;;;;4193343;28;20410;-59
2022/08/21 12:07:43;;;;;;;;;;;28.60;99.40;;;;;;4204854;28;19928;-58
2022/08/21 12:09:52;;;;;;;;;;;28.40;99.90;;;;;;4196478;28;19935;-57